Time;durP1;ratioP1;P1;durP2;ratioP2;P2;SDS_P1;SDS_P2;PMS_P1;PMS_P2;Temp;Humidity;BMP_temperature;BMP_pressure;BME280_temperature;BME280_humidity;BME280_pressure;Samples;Min_cycle;Max_cycle;Signal;HPM_P1;HPM_P2
2023/01/02 00:01:04;;;;;;;23.33;11.07;;;;;;;3.94;100.00;94259.09;5012803;28;20479;-65
2023/01/02 00:03:31;;;;;;;23.10;11.02;;;;;;;4.03;100.00;94256.91;5013702;28;20140;-65
2023/01/02 00:06:01;;;;;;;26.45;11.80;;;;;;;3.99;100.00;94256.84;5013107;28;20054;-65
2023/01/02 00:08:28;;;;;;;21.65;10.43;;;;;;;3.70;100.00;94242.06;5028789;28;20496;-65
2023/01/02 00:10:54;;;;;;;20.85;10.48;;;;;;;3.78;100.00;94249.16;5013105;28;20052;-65
2023/01/02 00:13:21;;;;;;;25.77;11.13;;;;;;;3.92;100.00;94245.88;5013600;28;20461;-65
2023/01/02 00:15:48;;;;;;;22.05;10.55;;;;;;;3.94;100.00;94246.31;5012821;28;20054;-65
2023/01/02 00:18:14;;;;;;;19.05;9.82;;;;;;;3.98;100.00;94246.34;5011955;28;20048;-65
2023/01/02 00:20:41;;;;;;;21.83;10.65;;;;;;;3.86;100.00;94241.13;4990697;28;20059;-65
2023/01/02 00:23:08;;;;;;;21.13;10.63;;;;;;;3.91;100.00;94244.31;4989366;28;20053;-65
2023/01/02 00:25:34;;;;;;;17.80;9.93;;;;;;;3.97;100.00;94229.28;4991348;28;20121;-65
2023/01/02 00:28:02;;;;;;;24.27;10.35;;;;;;;3.92;100.00;94229.56;4993148;28;20050;-65
2023/01/02 00:30:28;;;;;;;21.38;11.10;;;;;;;3.78;100.00;94240.22;4993597;28;20042;-65
2023/01/02 00:33:04;;;;;;;20.02;10.38;;;;;;;3.85;100.00;94231.44;4993297;28;20044;-65
2023/01/02 00:35:31;;;;;;;19.15;10.07;;;;;;;3.80;100.00;94232.50;4988416;28;20052;-65
2023/01/02 00:37:57;;;;;;;22.70;10.53;;;;;;;3.69;100.00;94224.19;5010218;28;20065;-65
2023/01/02 00:40:24;;;;;;;21.45;11.20;;;;;;;3.67;100.00;94228.44;5006249;28;20119;-65
2023/01/02 00:42:51;;;;;;;21.85;10.88;;;;;;;3.52;100.00;94222.78;4992615;28;20058;-65
2023/01/02 00:45:17;;;;;;;18.27;10.00;;;;;;;3.69;100.00;94220.72;4993007;28;20042;-65
2023/01/02 00:47:44;;;;;;;20.15;10.70;;;;;;;3.78;100.00;94221.22;4994819;28;20384;-65
2023/01/02 00:50:11;;;;;;;24.60;11.17;;;;;;;3.77;100.00;94223.16;5011966;28;21364;-65
2023/01/02 00:52:38;;;;;;;20.92;10.48;;;;;;;3.74;100.00;94225.81;5011405;28;20052;-65
2023/01/02 00:55:05;;;;;;;23.70;10.95;;;;;;;3.79;100.00;94225.53;5012227;28;20052;-64
2023/01/02 00:57:31;;;;;;;22.98;10.55;;;;;;;3.89;100.00;94224.91;5012793;28;20045;-65
2023/01/02 00:59:58;;;;;;;22.80;11.07;;;;;;;3.84;100.00;94219.00;5011884;28;20104;-65
2023/01/02 01:02:25;;;;;;;25.40;11.77;;;;;;;3.79;100.00;94222.81;5012552;28;20038;-64
2023/01/02 01:04:52;;;;;;;25.38;11.05;;;;;;;3.76;100.00;94218.09;5011014;28;20049;-65
2023/01/02 01:07:18;;;;;;;21.52;9.98;;;;;;;3.87;100.00;94219.03;5012495;28;20046;-65
2023/01/02 01:09:45;;;;;;;15.15;7.43;;;;;;;4.08;100.00;94210.41;5012444;28;20112;-65
2023/01/02 01:12:12;;;;;;;17.15;7.47;;;;;;;4.29;100.00;94209.16;5011514;28;20038;-65
2023/01/02 01:14:39;;;;;;;13.07;6.40;;;;;;;4.36;100.00;94204.59;5012041;28;20381;-65
2023/01/02 01:17:06;;;;;;;10.73;5.65;;;;;;;4.54;100.00;94204.03;5011714;28;20407;-65
2023/01/02 01:19:34;;;;;;;13.27;5.80;;;;;;;4.60;100.00;94213.41;5012312;28;20394;-65
2023/01/02 01:22:01;;;;;;;12.15;4.93;;;;;;;4.62;100.00;94204.91;5011921;28;20403;-65
2023/01/02 01:24:28;;;;;;;9.98;4.72;;;;;;;4.69;100.00;94202.25;5011852;28;20521;-64
2023/01/02 01:26:54;;;;;;;9.67;4.90;;;;;;;4.69;100.00;94203.06;5011518;28;20107;-65
2023/01/02 01:29:21;;;;;;;12.85;6.13;;;;;;;4.46;100.00;94207.81;5010703;28;20049;-65
2023/01/02 01:31:48;;;;;;;13.40;6.93;;;;;;;4.40;100.00;94208.13;5011207;28;20490;-64
2023/01/02 01:34:15;;;;;;;12.68;7.10;;;;;;;4.30;100.00;94213.44;5012247;28;20045;-63
2023/01/02 01:36:41;;;;;;;15.63;7.32;;;;;;;4.34;100.00;94212.31;5012001;28;20495;-64
2023/01/02 01:39:08;;;;;;;12.77;6.40;;;;;;;4.33;100.00;94215.44;5011274;28;20049;-64
2023/01/02 01:41:35;;;;;;;13.38;6.25;;;;;;;4.34;100.00;94208.81;4995721;28;20045;-64
2023/01/02 01:44:40;;;;;;;11.80;5.72;;;;;;;4.35;100.00;94215.84;4991753;28;20050;-64
2023/01/02 01:47:38;;;;;;;15.57;6.95;;;;;;;4.09;100.00;94219.38;4991863;28;20043;-64
2023/01/02 01:50:11;;;;;;;18.27;7.80;;;;;;;3.99;100.00;94213.41;4985399;28;20058;-64
2023/01/02 01:52:46;;;;;;;13.77;6.63;;;;;;;3.98;100.00;94205.63;4987310;28;20101;-63
2023/01/02 01:55:34;;;;;;;15.02;6.68;;;;;;;3.88;100.00;94217.88;4986968;28;20737;-64
2023/01/02 01:58:07;;;;;;;15.73;7.25;;;;;;;3.82;100.00;94218.56;4991403;28;20050;-65
2023/01/02 02:00:35;;;;;;;15.20;7.18;;;;;;;3.82;100.00;94205.78;4991045;28;20045;-65
2023/01/02 02:03:07;;;;;;;13.95;6.97;;;;;;;3.98;100.00;94214.56;4989862;28;20120;-64
2023/01/02 02:05:35;;;;;;;16.03;7.43;;;;;;;3.91;100.00;94221.81;4992054;28;20407;-64
2023/01/02 02:08:20;;;;;;;16.52;7.30;;;;;;;3.39;100.00;94221.38;4986351;28;20042;-64
2023/01/02 02:10:47;;;;;;;13.98;6.78;;;;;;;3.54;100.00;94208.81;4991154;28;20053;-64
2023/01/02 02:13:14;;;;;;;23.25;11.63;;;;;;;3.72;100.00;94217.25;4991836;28;20065;-64
2023/01/02 02:16:05;;;;;;;27.42;12.40;;;;;;;3.82;100.00;94213.91;4991135;28;20046;-64
2023/01/02 02:18:50;;;;;;;16.53;8.33;;;;;;;3.81;100.00;94212.38;4995839;28;20057;-64
2023/01/02 02:21:36;;;;;;;13.23;7.03;;;;;;;3.78;100.00;94216.59;4989864;28;21733;-64
2023/01/02 02:24:36;;;;;;;13.90;7.22;;;;;;;3.73;100.00;94208.75;4991627;28;20195;-63
2023/01/02 02:27:31;;;;;;;13.82;6.68;;;;;;;3.64;100.00;94210.16;4973801;28;20498;-64
2023/01/02 02:30:14;;;;;;;15.38;7.47;;;;;;;3.45;100.00;94213.72;4981933;28;20050;-64
2023/01/02 02:33:18;;;;;;;14.77;6.90;;;;;;;3.47;100.00;94208.72;4993474;28;20088;-64
2023/01/02 02:35:56;;;;;;;15.18;7.38;;;;;;;3.54;100.00;94190.63;4984130;28;20185;-64
2023/01/02 02:38:38;;;;;;;13.32;7.05;;;;;;;3.46;100.00;94185.44;4996023;28;20907;-64
2023/01/02 02:41:19;;;;;;;12.55;6.68;;;;;;;3.44;100.00;94190.44;4993055;28;20076;-63
2023/01/02 02:44:29;;;;;;;15.05;7.30;;;;;;;3.23;100.00;94185.47;4990625;28;20043;-62
2023/01/02 02:47:06;;;;;;;47.40;22.60;;;;;;;3.40;100.00;94183.06;4992719;28;20050;-64
2023/01/02 02:49:48;;;;;;;15.65;8.50;;;;;;;3.35;100.00;94169.00;4991142;28;20484;-64
2023/01/02 02:52:24;;;;;;;14.38;7.90;;;;;;;3.27;100.00;94175.47;4989402;28;20661;-64
2023/01/02 02:54:59;;;;;;;13.10;7.43;;;;;;;3.24;100.00;94173.47;5010015;28;20045;-65
2023/01/02 02:57:26;;;;;;;14.73;7.25;;;;;;;3.34;100.00;94170.94;5010427;28;20048;-64
2023/01/02 02:59:53;;;;;;;14.53;6.67;;;;;;;3.36;100.00;94165.13;5008564;28;20053;-64
2023/01/02 03:02:19;;;;;;;14.75;6.63;;;;;;;3.33;100.00;94160.44;5009880;28;20042;-64
2023/01/02 03:04:51;;;;;;;12.20;7.03;;;;;;;3.29;100.00;94156.91;5009684;28;20442;-65
2023/01/02 03:07:29;;;;;;;15.93;7.50;;;;;;;3.26;100.00;94149.47;5010505;28;20503;-64
2023/01/02 03:10:26;;;;;;;13.45;7.07;;;;;;;3.30;100.00;94150.31;4991983;28;20058;-64
2023/01/02 03:12:52;;;;;;;15.13;6.37;;;;;;;3.31;100.00;94149.19;4984268;28;20477;-65
2023/01/02 03:15:31;;;;;;;12.95;6.10;;;;;;;3.38;100.00;94160.13;4990605;28;20435;-64
2023/01/02 03:18:25;;;;;;;11.20;6.40;;;;;;;3.19;100.00;94159.06;4986688;28;20042;-64
2023/01/02 03:21:03;;;;;;;12.27;6.35;;;;;;;3.11;100.00;94156.59;4983733;28;20046;-64
2023/01/02 03:23:34;;;;;;;10.63;6.13;;;;;;;3.17;100.00;94169.47;4986214;28;20068;-65
2023/01/02 03:26:03;;;;;;;11.87;6.23;;;;;;;3.34;100.00;94170.94;5005449;28;20103;-64
2023/01/02 03:28:31;;;;;;;10.15;4.70;;;;;;;3.54;100.00;94168.94;5008815;28;20124;-64
2023/01/02 03:31:01;;;;;;;10.50;4.70;;;;;;;3.69;100.00;94164.47;5009056;28;20057;-64
2023/01/02 03:33:32;;;;;;;9.10;4.03;;;;;;;3.74;100.00;94161.47;5010212;28;20038;-64
2023/01/02 03:36:06;;;;;;;13.27;6.65;;;;;;;3.85;100.00;94158.13;5009467;28;20323;-65
2023/01/02 03:38:37;;;;;;;12.33;5.73;;;;;;;3.89;100.00;94159.72;5003866;28;20050;-64
2023/01/02 03:41:10;;;;;;;11.73;5.15;;;;;;;3.91;100.00;94164.81;4988292;28;20407;-64
2023/01/02 03:43:39;;;;;;;9.57;4.53;;;;;;;3.87;100.00;94155.81;4990645;28;20046;-64
2023/01/02 03:46:17;;;;;;;9.57;4.70;;;;;;;3.78;100.00;94150.66;4989944;28;20399;-64
2023/01/02 03:48:54;;;;;;;8.13;4.55;;;;;;;3.86;100.00;94165.09;4989720;28;20050;-64
2023/01/02 03:51:21;;;;;;;15.87;8.60;;;;;;;3.98;100.00;94154.81;5009321;28;20187;-64
2023/01/02 03:53:49;;;;;;;16.08;8.77;;;;;;;4.28;100.00;94161.41;5009159;28;20126;-64
2023/01/02 03:56:26;;;;;;;13.63;6.18;;;;;;;4.48;100.00;94157.38;5009948;28;20052;-65
2023/01/02 03:59:24;;;;;;;9.40;3.80;;;;;;;4.65;100.00;94157.94;5008797;28;20364;-64
2023/01/02 04:02:00;;;;;;;8.25;4.00;;;;;;;4.68;100.00;94159.94;5007625;28;20046;-64
2023/01/02 04:04:53;;;;;;;9.10;4.10;;;;;;;4.66;100.00;94160.28;4984632;28;20641;-64
2023/01/02 04:07:35;;;;;;;8.40;3.72;;;;;;;4.62;100.00;94155.97;4988983;28;20114;-64
2023/01/02 04:10:03;;;;;;;6.63;3.42;;;;;;;4.74;100.00;94159.22;4989555;28;20557;-65
2023/01/02 04:12:34;;;;;;;6.43;3.28;;;;;;;4.70;100.00;94154.91;4990375;28;20039;-64
2023/01/02 04:15:05;;;;;;;8.10;3.70;;;;;;;4.59;100.00;94147.41;4989495;28;20042;-65
2023/01/02 04:17:38;;;;;;;7.50;4.00;;;;;;;4.51;100.00;94153.91;4986357;28;20043;-64
2023/01/02 04:20:09;;;;;;;7.65;4.20;;;;;;;4.33;100.00;94147.50;4982542;28;20079;-64
2023/01/02 04:22:48;;;;;;;11.65;4.70;;;;;;;4.19;100.00;94142.66;5009988;28;20037;-65
2023/01/02 04:25:16;;;;;;;10.57;5.25;;;;;;;4.09;100.00;94143.31;5008672;28;21804;-64
2023/01/02 04:28:06;;;;;;;10.63;5.00;;;;;;;4.02;100.00;94143.22;5009861;28;20049;-64
2023/01/02 04:30:38;;;;;;;9.80;4.60;;;;;;;4.04;100.00;94143.63;5008647;28;21621;-64
2023/01/02 04:33:08;;;;;;;8.75;4.65;;;;;;;3.99;100.00;94142.81;5008974;28;20041;-65
2023/01/02 04:35:35;;;;;;;9.43;5.20;;;;;;;3.96;100.00;94143.56;5009854;28;20041;-65
2023/01/02 04:38:09;;;;;;;10.65;5.20;;;;;;;3.93;100.00;94151.66;5008821;28;20514;-64
2023/01/02 04:40:37;;;;;;;10.60;5.38;;;;;;;3.89;100.00;94150.81;5012671;28;20091;-64
2023/01/02 04:43:07;;;;;;;9.57;5.53;;;;;;;3.90;100.00;94157.78;4999527;28;20511;-63
2023/01/02 04:45:34;;;;;;;11.90;5.25;;;;;;;3.84;100.00;94153.81;4991579;28;20039;-64
2023/01/02 04:48:01;;;;;;;10.38;5.15;;;;;;;3.85;100.00;94155.41;4992493;28;20050;-63
2023/01/02 04:50:27;;;;;;;10.82;5.82;;;;;;;3.78;100.00;94151.44;4987893;28;20046;-63
2023/01/02 04:52:54;;;;;;;11.75;5.72;;;;;;;3.86;100.00;94146.09;4990344;28;20108;-63
2023/01/02 04:55:21;;;;;;;11.17;5.83;;;;;;;3.80;100.00;94146.44;4991777;28;20046;-64
2023/01/02 04:57:47;;;;;;;11.70;5.82;;;;;;;3.72;100.00;94152.91;4994838;28;20403;-63
2023/01/02 05:00:14;;;;;;;11.60;6.25;;;;;;;3.67;100.00;94149.72;4993101;28;20492;-63
2023/01/02 05:02:41;;;;;;;9.50;5.78;;;;;;;3.68;100.00;94145.84;4992827;28;20088;-64
2023/01/02 05:05:09;;;;;;;11.52;6.00;;;;;;;3.57;100.00;94143.75;4987262;28;20046;-64
2023/01/02 05:07:36;;;;;;;11.37;6.00;;;;;;;3.70;100.00;94143.56;4993045;28;20065;-63
2023/01/02 05:10:04;;;;;;;10.98;6.13;;;;;;;3.82;100.00;94142.56;4989921;28;20046;-63
2023/01/02 05:12:36;;;;;;;14.73;6.05;;;;;;;4.03;100.00;94144.78;4986458;28;20384;-63
2023/01/02 05:15:04;;;;;;;11.60;5.90;;;;;;;3.65;100.00;94149.31;4988534;28;20412;-64
2023/01/02 05:17:35;;;;;;;12.25;6.20;;;;;;;3.43;100.00;94145.50;5002640;28;20058;-64
2023/01/02 05:20:04;;;;;;;11.40;5.60;;;;;;;3.41;100.00;94145.84;5011321;28;20276;-64
2023/01/02 05:25:17;;;;;;;14.80;7.07;;;;;;;3.18;100.00;94154.78;5002346;28;20606;-64
2023/01/02 05:27:44;;;;;;;14.02;5.82;;;;;;;3.24;100.00;94152.56;5009429;28;20407;-64
2023/01/02 05:30:11;;;;;;;11.05;5.63;;;;;;;3.25;100.00;94159.53;5011622;28;20053;-64
2023/01/02 05:32:38;;;;;;;9.65;4.85;;;;;;;3.38;100.00;94157.41;5009643;28;20046;-64
2023/01/02 05:35:05;;;;;;;11.40;5.60;;;;;;;3.46;100.00;94156.41;5000778;28;20050;-64
2023/01/02 05:37:31;;;;;;;10.18;5.30;;;;;;;3.52;100.00;94152.22;5010676;28;20042;-64
2023/01/02 05:39:58;;;;;;;10.80;5.18;;;;;;;3.56;100.00;94158.50;5011112;28;20053;-64
2023/01/02 05:42:25;;;;;;;11.35;5.72;;;;;;;3.64;100.00;94155.88;5011788;28;20042;-64
2023/01/02 05:44:51;;;;;;;9.87;5.30;;;;;;;3.63;100.00;94157.81;5010816;28;20107;-64
2023/01/02 05:47:18;;;;;;;10.55;4.93;;;;;;;3.70;100.00;94159.84;5011430;28;20095;-64
2023/01/02 05:49:45;;;;;;;8.38;4.50;;;;;;;3.73;100.00;94159.91;5011317;28;20053;-64
2023/01/02 05:52:11;;;;;;;11.07;5.55;;;;;;;3.75;100.00;94163.03;5010798;28;20449;-65
2023/01/02 05:54:38;;;;;;;13.25;5.00;;;;;;;3.81;100.00;94166.22;5011594;28;20457;-64
2023/01/02 05:57:05;;;;;;;7.77;3.83;;;;;;;3.76;100.00;94169.22;4995897;28;20039;-65
2023/01/02 05:59:32;;;;;;;8.80;4.30;;;;;;;3.86;100.00;94168.59;4985057;28;20127;-64
2023/01/02 06:02:02;;;;;;;9.23;4.20;;;;;;;3.88;100.00;94165.53;4990760;28;20050;-65
2023/01/02 06:04:28;;;;;;;16.15;7.47;;;;;;;3.82;100.00;94167.00;4985869;28;20050;-65
2023/01/02 06:06:55;;;;;;;11.05;5.00;;;;;;;3.81;100.00;94171.63;5009647;28;20481;-65
2023/01/02 06:09:22;;;;;;;10.67;4.77;;;;;;;3.85;100.00;94167.03;5011436;28;20037;-64
2023/01/02 06:11:48;;;;;;;10.98;4.88;;;;;;;3.77;100.00;94179.72;5010654;28;20465;-65
2023/01/02 06:14:15;;;;;;;14.60;5.57;;;;;;;3.77;100.00;94176.25;5011120;28;20109;-65
2023/01/02 06:16:42;;;;;;;22.70;4.35;;;;;;;3.92;100.00;94182.66;5011369;28;20042;-65
2023/01/02 06:19:09;;;;;;;9.68;4.30;;;;;;;3.92;100.00;94175.28;5010353;28;20045;-64
2023/01/02 06:21:35;;;;;;;10.67;5.20;;;;;;;3.76;100.00;94180.09;5011249;28;20046;-64
2023/01/02 06:24:02;;;;;;;11.35;5.25;;;;;;;3.35;100.00;94171.72;5010369;28;20541;-64
2023/01/02 06:26:29;;;;;;;11.55;5.00;;;;;;;3.45;100.00;94173.81;5010860;28;20091;-65
2023/01/02 06:29:01;;;;;;;11.73;4.78;;;;;;;3.55;100.00;94170.47;5010162;28;20045;-64
2023/01/02 06:31:28;;;;;;;9.48;4.30;;;;;;;3.65;100.00;94181.88;5010921;28;20076;-64
2023/01/02 06:33:57;;;;;;;10.20;4.33;;;;;;;3.69;100.00;94175.34;5000693;28;20072;-64
2023/01/02 06:36:25;;;;;;;9.93;4.20;;;;;;;3.75;100.00;94184.75;4989684;28;20045;-64
2023/01/02 06:38:52;;;;;;;13.75;4.65;;;;;;;3.76;100.00;94186.31;5004151;28;20073;-64
2023/01/02 06:41:18;;;;;;;11.07;4.57;;;;;;;3.76;100.00;94178.19;5010519;28;20050;-63
2023/01/02 06:43:47;;;;;;;11.00;5.65;;;;;;;3.73;100.00;94194.41;5010841;28;20050;-64
2023/01/02 06:46:16;;;;;;;13.17;5.87;;;;;;;3.69;100.00;94185.44;5006134;28;20907;-64
2023/01/02 06:48:44;;;;;;;9.82;5.20;;;;;;;3.72;100.00;94195.53;4989611;28;20070;-64
2023/01/02 06:51:13;;;;;;;13.30;6.57;;;;;;;3.74;100.00;94198.66;4988658;28;20046;-63
2023/01/02 06:53:42;;;;;;;21.38;9.73;;;;;;;3.82;100.00;94203.06;4983833;28;20051;-64
2023/01/02 06:56:10;;;;;;;16.75;8.10;;;;;;;3.85;100.00;94202.34;4987867;28;20053;-63
2023/01/02 06:58:37;;;;;;;15.37;6.10;;;;;;;3.89;100.00;94208.59;4991080;28;20045;-64
2023/01/02 07:01:09;;;;;;;15.45;6.50;;;;;;;3.92;100.00;94212.50;4987860;28;20389;-64
2023/01/02 07:03:36;;;;;;;10.98;5.05;;;;;;;3.77;100.00;94203.38;4983219;28;20042;-64
2023/01/02 07:06:06;;;;;;;13.63;6.15;;;;;;;3.77;100.00;94208.81;4989696;28;20458;-64
2023/01/02 07:08:33;;;;;;;14.73;6.70;;;;;;;3.70;100.00;94206.78;4990797;28;20458;-64
2023/01/02 07:11:20;;;;;;;13.27;6.00;;;;;;;3.84;100.00;94210.84;4986847;28;20049;-63
2023/01/02 07:13:49;;;;;;;10.48;5.28;;;;;;;3.92;100.00;94205.13;4988827;28;20051;-64
2023/01/02 07:16:17;;;;;;;10.70;5.40;;;;;;;4.02;100.00;94202.97;4999260;28;20054;-63
2023/01/02 07:18:45;;;;;;;46.08;17.98;;;;;;;4.06;100.00;94206.50;5009898;28;20050;-63
2023/01/02 07:21:14;;;;;;;67.78;25.83;;;;;;;4.10;100.00;94210.81;5008971;28;20046;-63
2023/01/02 07:23:41;;;;;;;39.27;16.17;;;;;;;4.15;100.00;94207.81;5009929;28;20617;-64
2023/01/02 07:26:09;;;;;;;17.38;8.20;;;;;;;3.99;100.00;94205.25;5009166;28;20427;-64
2023/01/02 07:28:37;;;;;;;15.02;7.03;;;;;;;3.68;100.00;94211.78;5008937;28;20502;-63
2023/01/02 07:31:11;;;;;;;17.38;7.97;;;;;;;3.74;100.00;94207.63;5009160;28;20056;-64
2023/01/02 07:33:37;;;;;;;27.73;12.98;;;;;;;3.75;100.00;94213.81;5009891;28;20045;-64
2023/01/02 07:36:07;;;;;;;19.97;9.60;;;;;;;3.80;100.00;94213.50;5009573;28;20034;-64
2023/01/02 07:38:34;;;;;;;22.70;8.68;;;;;;;3.77;100.00;94220.44;5010306;28;20384;-64
2023/01/02 07:41:01;;;;;;;15.88;7.68;;;;;;;3.17;100.00;94222.94;5008845;28;20052;-64
2023/01/02 07:43:27;;;;;;;15.35;7.68;;;;;;;3.20;100.00;94224.94;5010042;28;20042;-64
2023/01/02 07:46:01;;;;;;;14.43;7.80;;;;;;;3.50;100.00;94227.78;5008221;28;20042;-64
2023/01/02 07:48:30;;;;;;;15.50;7.63;;;;;;;3.65;100.00;94228.78;5009910;28;20402;-64
2023/01/02 07:51:04;;;;;;;16.98;8.50;;;;;;;3.73;100.00;94230.47;5009286;28;20111;-64
2023/01/02 07:53:31;;;;;;;39.58;19.65;;;;;;;3.79;100.00;94234.44;5009902;28;20054;-64
2023/01/02 07:55:59;;;;;;;29.45;16.17;;;;;;;3.83;100.00;94239.16;5008629;28;20427;-64
2023/01/02 07:58:27;;;;;;;23.30;11.95;;;;;;;4.02;100.00;94240.97;5009776;28;20064;-64
2023/01/02 08:00:54;;;;;;;20.33;9.70;;;;;;;4.07;100.00;94235.25;4979234;28;20051;-64
2023/01/02 08:03:29;;;;;;;18.70;8.65;;;;;;;4.14;100.00;94230.69;4989986;28;20055;-64
2023/01/02 08:06:08;;;;;;;15.57;8.45;;;;;;;4.17;100.00;94242.75;4983383;28;20488;-65
2023/01/02 08:08:35;;;;;;;15.93;7.20;;;;;;;4.31;100.00;94236.75;4990820;28;20420;-64
2023/01/02 08:11:06;;;;;;;13.48;6.63;;;;;;;4.29;100.00;94233.63;4989552;28;20054;-64
2023/01/02 08:13:33;;;;;;;14.97;6.57;;;;;;;4.21;100.00;94238.16;4992051;28;20398;-65
2023/01/02 08:16:09;;;;;;;14.65;7.10;;;;;;;4.28;100.00;94251.06;4992873;28;20046;-64
2023/01/02 08:18:36;;;;;;;15.38;6.75;;;;;;;4.25;100.00;94249.84;4995120;28;20077;-64
2023/01/02 08:21:03;;;;;;;17.17;6.65;;;;;;;4.46;100.00;94246.63;5012588;28;20042;-64
2023/01/02 08:23:31;;;;;;;22.25;11.25;;;;;;;4.52;100.00;94247.88;5013294;28;20449;-64
2023/01/02 08:25:59;;;;;;;19.83;9.23;;;;;;;4.74;100.00;94242.72;5012728;28;20053;-64
2023/01/02 08:28:26;;;;;;;18.95;9.27;;;;;;;4.86;100.00;94250.63;5013172;28;20037;-64
2023/01/02 08:30:53;;;;;;;26.77;14.07;;;;;;;4.87;100.00;94252.22;5011863;28;20054;-65
2023/01/02 08:33:20;;;;;;;20.50;10.10;;;;;;;4.95;100.00;94258.50;4993054;28;20046;-65
2023/01/02 08:35:47;;;;;;;18.27;9.63;;;;;;;5.01;100.00;94257.03;4990229;28;20115;-64
2023/01/02 08:38:14;;;;;;;14.57;8.47;;;;;;;5.16;100.00;94263.41;4992330;28;20079;-65
2023/01/02 08:40:41;;;;;;;12.02;6.05;;;;;;;5.14;100.00;94261.06;5012569;28;20399;-65
2023/01/02 08:43:08;;;;;;;16.42;7.65;;;;;;;5.05;100.00;94267.94;5012401;28;20046;-65
2023/01/02 08:45:35;;;;;;;16.13;8.75;;;;;;;4.87;100.00;94262.28;5009669;28;20073;-64
2023/01/02 08:48:02;;;;;;;17.80;10.13;;;;;;;4.93;100.00;94269.75;4984259;28;20052;-64
2023/01/02 08:50:48;;;;;;;61.87;29.70;;;;;;;4.99;100.00;94270.22;4986761;28;20055;-64
2023/01/02 08:53:15;;;;;;;41.80;20.40;;;;;;;5.09;100.00;94266.84;4991261;28;20443;-65
2023/01/02 08:55:41;;;;;;;34.35;17.50;;;;;;;5.25;100.00;94272.06;4993261;28;20488;-65
2023/01/02 08:58:08;;;;;;;22.40;11.60;;;;;;;5.20;100.00;94267.72;4992599;28;20046;-65
2023/01/02 09:00:35;;;;;;;23.10;11.60;;;;;;;5.40;100.00;94268.31;4992879;28;20043;-65
2023/01/02 09:03:01;;;;;;;23.03;12.83;;;;;;;5.56;100.00;94270.81;4992263;28;20047;-64
2023/01/02 09:05:29;;;;;;;27.45;13.73;;;;;;;5.54;100.00;94275.06;4992869;28;20041;-65
2023/01/02 09:07:57;;;;;;;22.73;12.25;;;;;;;5.45;100.00;94278.06;4989856;28;20595;-65
2023/01/02 09:10:24;;;;;;;17.73;10.00;;;;;;;5.38;100.00;94278.03;4983502;28;20049;-65
2023/01/02 09:12:51;;;;;;;22.73;11.30;;;;;;;5.41;100.00;94285.44;4991778;28;20042;-65
2023/01/02 09:15:18;;;;;;;23.47;11.87;;;;;;;5.63;100.00;94302.75;4985493;28;20092;-65
2023/01/02 09:17:45;;;;;;;20.85;10.82;;;;;;;5.46;100.00;94298.72;4987381;28;20488;-65
2023/01/02 09:20:11;;;;;;;24.17;11.55;;;;;;;5.59;100.00;94296.50;5011207;28;20615;-65
2023/01/02 09:22:39;;;;;;;24.95;12.57;;;;;;;5.68;100.00;94296.97;5012317;28;20398;-65
2023/01/02 09:25:06;;;;;;;27.15;13.50;;;;;;;5.54;100.00;94288.69;5010166;28;20038;-65
2023/01/02 09:27:33;;;;;;;27.60;13.47;;;;;;;5.54;100.00;94292.19;5012215;28;20038;-65
2023/01/02 09:30:00;;;;;;;23.90;12.23;;;;;;;5.52;100.00;94283.59;5011505;28;20046;-65
2023/01/02 09:32:26;;;;;;;21.33;11.40;;;;;;;5.70;100.00;94289.22;5006498;28;20042;-65
2023/01/02 09:34:53;;;;;;;16.17;7.93;;;;;;;5.91;100.00;94298.72;4991646;28;20054;-65
2023/01/02 09:37:20;;;;;;;18.92;11.13;;;;;;;5.49;100.00;94305.34;5000544;28;20049;-65
2023/01/02 09:39:46;;;;;;;21.70;11.23;;;;;;;5.62;100.00;94311.31;5011915;28;20053;-65
2023/01/02 09:42:15;;;;;;;29.15;13.23;;;;;;;5.41;100.00;94320.81;5010747;28;20526;-65
2023/01/02 09:44:50;;;;;;;24.73;13.27;;;;;;;5.56;100.00;94319.03;4992545;28;20174;-64
2023/01/02 09:47:24;;;;;;;23.65;13.65;;;;;;;5.57;100.00;94324.13;4977899;28;21591;-64
2023/01/02 09:49:55;;;;;;;28.02;14.05;;;;;;;5.62;100.00;94314.03;4987724;28;20046;-64
2023/01/02 09:52:52;;;;;;;23.07;13.13;;;;;;;5.78;100.00;94314.59;4993185;28;20038;-65
2023/01/02 09:55:37;;;;;;;28.27;14.32;;;;;;;6.15;100.00;94313.75;4989905;28;20582;-64
2023/01/02 09:58:20;;;;;;;28.27;14.50;;;;;;;6.45;100.00;94318.25;4991300;28;20046;-64
2023/01/02 10:00:49;;;;;;;27.10;14.20;;;;;;;6.09;100.00;94309.81;4991233;28;20042;-64
2023/01/02 10:04:03;;;;;;;34.35;16.88;;;;;;;6.26;100.00;94311.91;5010958;28;20403;-64
2023/01/02 10:07:06;;;;;;;30.20;16.10;;;;;;;6.34;100.00;94312.75;4994215;28;20378;-64
2023/01/02 10:09:53;;;;;;;31.33;18.10;;;;;;;6.47;100.00;94314.00;5007856;28;20054;-64
2023/01/02 10:12:34;;;;;;;27.50;15.15;;;;;;;6.59;100.00;94312.91;4990661;28;20250;-64
2023/01/02 10:15:14;;;;;;;28.98;15.60;;;;;;;6.67;100.00;94314.50;5010507;28;20054;-65
2023/01/02 10:17:48;;;;;;;28.40;14.45;;;;;;;6.70;100.00;94318.41;5003669;28;20189;-64
2023/01/02 10:20:18;;;;;;;28.03;14.60;;;;;;;6.93;100.00;94321.66;5001665;28;20039;-65
2023/01/02 10:22:53;;;;;;;26.40;15.20;;;;;;;6.80;100.00;94317.69;4986939;28;20069;-64
2023/01/02 10:25:25;;;;;;;24.30;12.90;;;;;;;7.04;100.00;94324.44;4991173;28;20134;-65
2023/01/02 10:27:59;;;;;;;24.52;13.90;;;;;;;6.85;100.00;94330.19;4991007;28;20042;-65
2023/01/02 10:30:34;;;;;;;24.58;13.70;;;;;;;7.16;100.00;94337.78;4985375;28;20282;-64
2023/01/02 10:33:11;;;;;;;26.97;14.60;;;;;;;7.43;100.00;94333.97;4990925;28;20057;-65
2023/01/02 10:35:42;;;;;;;32.22;16.77;;;;;;;6.10;100.00;94328.50;4991078;28;20075;-65
2023/01/02 10:38:15;;;;;;;31.05;16.70;;;;;;;6.45;100.00;94338.13;4990689;28;20395;-64
2023/01/02 10:40:44;;;;;;;27.35;15.60;;;;;;;7.20;100.00;94332.31;4989876;28;20050;-64
2023/01/02 10:43:13;;;;;;;28.13;15.10;;;;;;;7.60;100.00;94330.50;4988805;28;20042;-64
2023/01/02 10:45:41;;;;;;;29.23;16.07;;;;;;;9.25;96.52;94322.25;5010978;28;20056;-65
2023/01/02 10:48:11;;;;;;;24.48;13.95;;;;;;;10.74;91.49;94313.47;5009995;28;20041;-62
2023/01/02 10:50:47;;;;;;;20.90;11.52;;;;;;;11.59;82.64;94318.44;5011094;28;20054;-65
2023/01/02 10:54:03;;;;;;;22.83;13.30;;;;;;;11.72;82.08;94324.16;5004398;28;20403;-65
2023/01/02 10:56:32;;;;;;;21.30;11.20;;;;;;;12.66;75.22;94312.59;5006844;28;20371;-65
2023/01/02 10:59:00;;;;;;;19.80;12.60;;;;;;;14.65;68.43;94324.69;4989295;28;20034;-65
2023/01/02 11:01:27;;;;;;;21.55;13.48;;;;;;;14.53;63.91;94324.16;5001166;28;20049;-66
2023/01/02 11:03:54;;;;;;;22.45;15.07;;;;;;;13.28;67.81;94324.84;5010040;28;20403;-65
2023/01/02 11:06:25;;;;;;;20.77;14.93;;;;;;;12.73;72.76;94315.97;5009870;28;20469;-65
2023/01/02 11:09:03;;;;;;;20.65;14.13;;;;;;;14.07;67.56;94316.97;4999965;28;20053;-65
2023/01/02 11:11:32;;;;;;;20.87;13.53;;;;;;;15.32;62.79;94332.47;4987384;28;20084;-65
2023/01/02 11:14:06;;;;;;;22.67;12.48;;;;;;;14.71;64.54;94320.22;4990412;28;20073;-65
2023/01/02 11:16:37;;;;;;;20.70;12.95;;;;;;;15.79;63.22;94304.31;4991948;28;20042;-65
2023/01/02 11:19:07;;;;;;;23.27;13.45;;;;;;;16.42;61.08;94300.06;5008682;28;20045;-65
2023/01/02 11:21:38;;;;;;;21.15;13.40;;;;;;;18.13;56.25;94300.91;5010050;28;20038;-66
2023/01/02 11:24:14;;;;;;;22.80;12.83;;;;;;;17.77;53.24;94312.53;5009609;28;20050;-65
2023/01/02 11:26:43;;;;;;;20.80;11.38;;;;;;;17.91;51.26;94303.72;5010008;28;20048;-66
2023/01/02 11:29:15;;;;;;;14.80;9.00;;;;;;;15.54;56.73;94305.78;4990286;28;20043;-65
2023/01/02 11:31:46;;;;;;;15.48;9.65;;;;;;;16.08;55.66;94301.50;4984510;28;20054;-65
2023/01/02 11:34:53;;;;;;;14.63;8.60;;;;;;;17.91;49.66;94300.16;5009525;28;20052;-65
2023/01/02 11:37:20;;;;;;;15.73;8.97;;;;;;;18.72;46.79;94298.19;4998311;28;20663;-65
2023/01/02 11:39:58;;;;;;;14.40;7.82;;;;;;;19.75;43.70;94308.97;5009421;28;20081;-65
2023/01/02 11:45:20;;;;;;;13.10;7.60;;;;;;;22.26;38.59;94292.34;5008995;28;20038;-66
2023/01/02 11:47:50;;;;;;;16.20;7.75;;;;;;;21.34;39.82;94291.88;5010042;28;20041;-63
2023/01/02 11:50:32;;;;;;;10.20;6.10;;;;;;;16.80;47.14;94301.97;5013701;28;20041;-66